createdAt,value
2018-04-08T00:01:39.390Z,13.20
2018-04-08T00:04:07.636Z,13.10
2018-04-08T00:06:36.657Z,13.00
2018-04-08T00:09:06.720Z,13.00
2018-04-08T00:11:34.985Z,12.90
2018-04-08T00:14:03.262Z,12.90
2018-04-08T00:16:31.528Z,12.80
2018-04-08T00:18:59.806Z,12.80
2018-04-08T00:21:28.074Z,12.70
2018-04-08T00:23:56.332Z,12.60
2018-04-08T00:26:25.363Z,12.50
2018-04-08T00:28:53.628Z,12.50
2018-04-08T00:31:21.894Z,12.60
2018-04-08T00:33:50.933Z,12.50
2018-04-08T00:36:19.195Z,12.50
2018-04-08T00:38:47.443Z,12.40
2018-04-08T00:41:15.699Z,12.40
2018-04-08T00:43:43.943Z,12.50
2018-04-08T00:46:12.214Z,12.40
2018-04-08T00:48:40.464Z,12.40
2018-04-08T00:51:08.799Z,12.40
2018-04-08T00:53:37.050Z,12.30
2018-04-08T00:56:05.310Z,12.30
2018-04-08T00:58:33.310Z,12.30
2018-04-08T01:01:02.101Z,12.30
2018-04-08T01:03:30.877Z,12.40
2018-04-08T01:05:58.902Z,12.40
2018-04-08T01:08:26.966Z,12.40
2018-04-08T01:10:55.745Z,12.30
2018-04-08T01:13:24.555Z,12.40
2018-04-08T01:15:53.446Z,12.40
2018-04-08T01:18:22.214Z,12.40
2018-04-08T01:20:50.555Z,12.40
2018-04-08T01:23:18.780Z,12.40
2018-04-08T01:25:47.035Z,12.30
2018-04-08T01:28:16.038Z,12.30
2018-04-08T01:30:45.057Z,12.30
2018-04-08T01:33:13.301Z,12.30
2018-04-08T01:35:42.327Z,12.20
2018-04-08T01:38:10.629Z,12.20
2018-04-08T01:40:38.889Z,12.30
2018-04-08T01:43:07.126Z,12.30
2018-04-08T01:45:35.467Z,12.30
2018-04-08T01:48:03.708Z,12.20
2018-04-08T01:50:32.729Z,12.20
2018-04-08T01:53:00.967Z,12.20
2018-04-08T01:55:29.306Z,12.20
2018-04-08T01:57:57.589Z,12.20
2018-04-08T02:00:25.841Z,12.20
2018-04-08T02:02:54.146Z,12.30
2018-04-08T02:05:22.422Z,12.10
2018-04-08T02:07:50.662Z,12.00
2018-04-08T02:10:19.698Z,11.90
2018-04-08T02:12:47.937Z,11.90
2018-04-08T02:15:16.970Z,11.90
2018-04-08T02:17:45.227Z,11.90
2018-04-08T02:20:14.259Z,12.00
2018-04-08T02:22:42.542Z,11.90
2018-04-08T02:25:10.803Z,11.90
2018-04-08T02:27:39.047Z,12.00
2018-04-08T02:30:07.307Z,11.90
2018-04-08T02:32:35.566Z,11.90
2018-04-08T02:35:03.821Z,11.90
2018-04-08T02:37:32.074Z,11.90
2018-04-08T02:40:01.090Z,11.90
2018-04-08T02:42:29.366Z,11.90
2018-04-08T02:44:58.428Z,11.90
2018-04-08T02:47:26.746Z,11.80
2018-04-08T02:49:55.812Z,11.90
2018-04-08T02:52:24.054Z,11.80
2018-04-08T02:54:52.302Z,11.90
2018-04-08T02:57:21.330Z,11.80
2018-04-08T02:59:49.577Z,11.80
2018-04-08T03:02:18.611Z,11.80
2018-04-08T03:04:46.855Z,11.80
2018-04-08T03:07:15.878Z,11.70
2018-04-08T03:09:44.171Z,11.70
2018-04-08T03:12:12.444Z,11.70
2018-04-08T03:14:41.399Z,11.70
2018-04-08T03:17:10.434Z,11.70
2018-04-08T03:19:38.673Z,11.70
2018-04-08T03:22:07.001Z,11.70
2018-04-08T03:24:35.300Z,11.80
2018-04-08T03:27:03.563Z,11.80
2018-04-08T03:29:31.806Z,11.80
2018-04-08T03:32:00.834Z,11.80
2018-04-08T03:34:29.079Z,11.70
2018-04-08T03:36:58.119Z,11.80
2018-04-08T03:39:26.376Z,11.80
2018-04-08T03:41:55.389Z,11.70
2018-04-08T03:44:23.642Z,11.70
2018-04-08T03:46:52.766Z,11.80
2018-04-08T03:49:21.016Z,11.70
2018-04-08T03:51:50.040Z,11.70
2018-04-08T03:54:18.723Z,11.60
2018-04-08T03:56:46.990Z,11.60
2018-04-08T03:59:15.229Z,11.50
2018-04-08T04:01:43.494Z,11.50
2018-04-08T04:04:11.747Z,11.40
2018-04-08T04:06:40.956Z,11.40
2018-04-08T04:09:09.231Z,11.40
2018-04-08T04:11:37.490Z,11.30
2018-04-08T04:14:05.738Z,11.30
2018-04-08T04:16:34.099Z,11.30
2018-04-08T04:19:14.106Z,11.20
2018-04-08T04:21:54.393Z,11.20
2018-04-08T04:24:34.592Z,11.20
2018-04-08T04:27:03.628Z,11.10
2018-04-08T04:29:31.922Z,11.00
2018-04-08T04:32:00.178Z,11.00
2018-04-08T04:34:29.189Z,10.80
2018-04-08T04:36:57.528Z,10.80
2018-04-08T04:39:25.811Z,10.70
2018-04-08T04:41:54.153Z,10.70
2018-04-08T04:44:22.446Z,10.60
2018-04-08T04:46:50.703Z,10.60
2018-04-08T04:49:19.009Z,10.50
2018-04-08T04:51:47.263Z,10.50
2018-04-08T04:54:15.510Z,10.20
2018-04-08T04:56:43.775Z,10.30
2018-04-08T04:59:12.122Z,10.30
2018-04-08T05:01:40.385Z,10.20
2018-04-08T05:04:08.632Z,10.20
2018-04-08T05:06:38.402Z,10.20
2018-04-08T05:09:06.694Z,10.20
2018-04-08T05:11:34.957Z,10.20
2018-04-08T05:14:03.203Z,10.20
2018-04-08T05:16:32.254Z,10.40
2018-04-08T05:19:00.493Z,10.30
2018-04-08T05:21:29.524Z,10.30
2018-04-08T05:23:57.808Z,10.30
2018-04-08T05:26:26.098Z,10.30
2018-04-08T05:28:54.355Z,10.30
2018-04-08T05:31:22.749Z,10.30
2018-04-08T05:33:51.034Z,10.30
2018-04-08T05:36:19.358Z,10.40
2018-04-08T05:38:48.034Z,10.50
2018-04-08T05:41:16.294Z,10.50
2018-04-08T05:43:44.552Z,10.60
2018-04-08T05:46:12.807Z,10.70
2018-04-08T05:48:41.839Z,10.90
2018-04-08T05:51:10.079Z,10.90
2018-04-08T05:53:39.232Z,11.40
2018-04-08T05:56:07.496Z,11.40
2018-04-08T05:58:35.776Z,11.80
2018-04-08T06:01:04.076Z,12.20
2018-04-08T06:03:32.437Z,12.60
2018-04-08T06:06:00.724Z,12.90
2018-04-08T06:08:28.992Z,13.20
2018-04-08T06:10:57.239Z,13.50
2018-04-08T06:13:26.263Z,14.40
2018-04-08T06:15:54.505Z,14.40
2018-04-08T06:18:22.764Z,14.70
2018-04-08T06:20:51.057Z,15.00
2018-04-08T06:23:19.320Z,15.30
2018-04-08T06:25:47.564Z,15.60
2018-04-08T06:28:16.622Z,15.90
2018-04-08T06:30:44.872Z,16.30
2018-04-08T06:33:13.151Z,16.70
2018-04-08T06:35:42.216Z,17.50
2018-04-08T06:38:10.547Z,17.50
2018-04-08T06:40:38.805Z,17.90
2018-04-08T06:43:07.067Z,18.30
2018-04-08T06:45:35.357Z,18.60
2018-04-08T06:48:03.618Z,19.10
2018-04-08T06:50:31.866Z,19.60
2018-04-08T06:53:00.927Z,20.50
2018-04-08T06:55:29.436Z,20.50
2018-04-08T06:57:58.071Z,20.70
2018-04-08T07:00:26.718Z,21.20
2018-04-08T07:02:55.490Z,21.70
2018-04-08T07:05:23.742Z,22.10
2018-04-08T07:07:52.030Z,22.50
2018-04-08T07:10:20.275Z,23.00
2018-04-08T07:12:49.336Z,23.70
2018-04-08T07:15:17.558Z,23.60
2018-04-08T07:17:45.815Z,24.00
2018-04-08T07:20:14.054Z,24.00
2018-04-08T07:22:42.323Z,23.90
2018-04-08T07:25:10.572Z,23.70
2018-04-08T07:27:39.603Z,23.50
2018-04-08T07:30:07.925Z,23.50
2018-04-08T07:32:36.164Z,23.70
2018-04-08T07:35:04.411Z,23.90
2018-04-08T07:37:33.454Z,24.80
2018-04-08T07:40:01.709Z,24.70
2018-04-08T07:42:29.993Z,25.20
2018-04-08T07:44:58.255Z,25.60
2018-04-08T07:47:26.537Z,26.00
2018-04-08T07:49:54.784Z,26.40
2018-04-08T07:52:23.029Z,26.60
2018-04-08T07:54:51.277Z,26.70
2018-04-08T07:57:19.580Z,26.60
2018-04-08T07:59:47.818Z,26.20
2018-04-08T08:02:16.859Z,25.60
2018-04-08T08:04:45.714Z,25.60
2018-04-08T08:07:14.739Z,24.60
2018-04-08T08:09:42.985Z,24.60
2018-04-08T08:12:12.038Z,24.10
2018-04-08T08:14:40.307Z,24.00
2018-04-08T08:17:08.581Z,24.00
2018-04-08T08:19:36.852Z,23.90
2018-04-08T08:22:05.106Z,24.10
2018-04-08T08:24:33.442Z,24.30
2018-04-08T08:27:01.701Z,24.70
2018-04-08T08:29:29.972Z,25.10
2018-04-08T08:31:58.330Z,25.50
2018-04-08T08:34:26.546Z,26.00
2018-04-08T08:36:54.833Z,26.60
2018-04-08T08:39:23.112Z,26.90
2018-04-08T08:41:51.403Z,27.20
2018-04-08T08:44:19.658Z,27.40
2018-04-08T08:46:47.907Z,28.00
2018-04-08T08:49:16.200Z,28.60
2018-04-08T08:51:44.513Z,28.90
2018-04-08T08:54:12.787Z,29.40
2018-04-08T08:56:41.040Z,30.00
2018-04-08T08:59:10.075Z,30.50
2018-04-08T09:01:38.333Z,30.40
2018-04-08T09:04:06.647Z,31.10
2018-04-08T09:06:35.170Z,31.50
2018-04-08T09:09:03.375Z,32.00
2018-04-08T09:11:32.404Z,32.80
2018-04-08T09:14:00.666Z,32.80
2018-04-08T09:16:28.932Z,33.20
2018-04-08T09:18:57.173Z,33.40
2018-04-08T09:21:28.919Z,34.10
2018-04-08T09:24:15.137Z,34.70
2018-04-08T09:26:43.383Z,35.20
2018-04-08T09:29:12.378Z,36.30
2018-04-08T09:31:40.649Z,36.30
2018-04-08T09:34:08.898Z,36.30
2018-04-08T09:36:38.038Z,37.00
2018-04-08T09:39:06.698Z,36.90
2018-04-08T09:41:35.010Z,37.30
2018-04-08T09:44:03.329Z,37.00
2018-04-08T09:46:31.684Z,37.10
2018-04-08T09:48:59.927Z,37.30
2018-04-08T09:51:28.197Z,37.60
2018-04-08T09:53:57.267Z,38.30
2018-04-08T09:56:26.310Z,38.30
2018-04-08T09:58:55.292Z,38.10
2018-04-08T10:01:29.199Z,38.00
2018-04-08T10:03:58.222Z,38.50
2018-04-08T10:06:26.473Z,38.40
2018-04-08T10:08:55.501Z,37.60
2018-04-08T10:11:23.748Z,37.60
2018-04-08T10:13:52.765Z,37.10
2018-04-08T10:16:21.019Z,37.00
2018-04-08T10:18:49.293Z,37.40
2018-04-08T10:21:17.584Z,37.30
2018-04-08T10:23:45.847Z,37.20
2018-04-08T10:26:14.090Z,37.50
2018-04-08T10:28:42.364Z,37.80
2018-04-08T10:31:10.654Z,38.10
2018-04-08T10:33:38.928Z,37.90
2018-04-08T10:36:07.165Z,38.40
2018-04-08T10:38:35.443Z,38.50
2018-04-08T10:41:03.682Z,38.90
2018-04-08T10:43:31.950Z,39.00
2018-04-08T10:46:00.183Z,39.30
2018-04-08T10:48:28.459Z,39.10
2018-04-08T10:50:56.697Z,39.00
2018-04-08T10:53:24.981Z,38.80
2018-04-08T10:55:53.258Z,38.60
2018-04-08T10:58:21.530Z,38.50
2018-04-08T11:00:49.829Z,38.40
2018-04-08T11:03:18.101Z,38.60
2018-04-08T11:05:46.346Z,38.50
2018-04-08T11:08:15.468Z,38.70
2018-04-08T11:10:43.764Z,38.60
2018-04-08T11:13:12.055Z,38.40
2018-04-08T11:15:40.297Z,38.50
2018-04-08T11:18:08.554Z,38.40
2018-04-08T11:20:37.562Z,38.00
2018-04-08T11:23:06.592Z,38.20
2018-04-08T11:25:34.852Z,38.20
2018-04-08T11:28:03.867Z,37.60
2018-04-08T11:30:32.111Z,37.60
2018-04-08T11:33:01.171Z,37.20
2018-04-08T11:35:29.441Z,37.20
2018-04-08T11:37:57.725Z,37.00
2018-04-08T11:40:25.989Z,37.00
2018-04-08T11:42:54.236Z,36.50
2018-04-08T11:45:23.254Z,36.10
2018-04-08T11:47:53.239Z,36.10
2018-04-08T11:50:22.254Z,35.70
2018-04-08T11:52:51.266Z,35.70
2018-04-08T11:55:19.522Z,35.60
2018-04-08T11:57:48.539Z,35.50
2018-04-08T12:00:17.568Z,35.30
2018-04-08T12:02:45.802Z,35.30
2018-04-08T12:05:14.827Z,34.80
2018-04-08T12:07:43.831Z,34.50
2018-04-08T12:10:12.090Z,34.50
2018-04-08T12:12:41.097Z,33.80
2018-04-08T12:15:09.361Z,33.80
2018-04-08T12:17:37.642Z,33.60
2018-04-08T12:20:06.666Z,32.80
2018-04-08T12:22:34.965Z,32.70
2018-04-08T12:25:03.224Z,32.10
2018-04-08T12:27:31.467Z,31.90
2018-04-08T12:29:59.726Z,31.50
2018-04-08T12:32:27.969Z,30.90
2018-04-08T12:34:56.301Z,30.40
2018-04-08T12:37:24.589Z,30.10
2018-04-08T12:39:52.842Z,29.50
2018-04-08T12:42:21.082Z,29.30
2018-04-08T12:44:49.939Z,29.00
2018-04-08T12:47:18.262Z,28.70
2018-04-08T12:49:46.614Z,28.60
2018-04-08T12:52:15.623Z,28.40
2018-04-08T12:54:44.650Z,28.40
2018-04-08T12:57:12.894Z,28.40
2018-04-08T12:59:41.916Z,28.40
2018-04-08T13:02:10.155Z,28.40
2018-04-08T13:04:38.412Z,28.50
2018-04-08T13:07:06.672Z,28.30
2018-04-08T13:09:34.940Z,28.30
2018-04-08T13:12:03.170Z,28.20
2018-04-08T13:14:31.433Z,28.10
2018-04-08T13:16:59.690Z,27.90
2018-04-08T13:19:27.956Z,27.80
2018-04-08T13:21:56.347Z,27.80
2018-04-08T13:24:24.586Z,27.80
2018-04-08T13:26:53.600Z,27.90
2018-04-08T13:29:21.861Z,27.90
2018-04-08T13:31:51.780Z,28.20
2018-04-08T13:34:20.038Z,28.10
2018-04-08T13:36:48.323Z,28.50
2018-04-08T13:39:16.565Z,28.90
2018-04-08T13:41:44.810Z,29.30
2018-04-08T13:44:13.849Z,30.10
2018-04-08T13:46:42.090Z,30.00
2018-04-08T13:49:11.126Z,29.50
2018-04-08T13:51:39.373Z,29.50
2018-04-08T13:54:08.395Z,28.90
2018-04-08T13:56:36.645Z,28.80
2018-04-08T13:59:05.671Z,28.10
2018-04-08T14:01:33.905Z,28.10
2018-04-08T14:04:02.181Z,27.80
2018-04-08T14:06:30.437Z,27.50
2018-04-08T14:08:58.700Z,27.20
2018-04-08T14:11:26.973Z,27.00
2018-04-08T14:13:56.100Z,26.80
2018-04-08T14:16:24.322Z,26.70
2018-04-08T14:18:53.366Z,26.60
2018-04-08T14:21:21.605Z,26.50
2018-04-08T14:23:50.622Z,26.20
2018-04-08T14:26:18.866Z,26.20
2018-04-08T14:28:47.129Z,26.10
2018-04-08T14:31:15.366Z,25.90
2018-04-08T14:33:43.663Z,25.70
2018-04-08T14:36:11.899Z,25.70
2018-04-08T14:38:40.929Z,25.50
2018-04-08T14:41:09.175Z,25.50
2018-04-08T14:43:38.242Z,25.40
2018-04-08T14:46:06.505Z,25.40
2018-04-08T14:48:34.749Z,25.30
2018-04-08T14:51:03.021Z,25.20
2018-04-08T14:53:32.022Z,25.00
2018-04-08T14:56:00.306Z,25.00
2018-04-08T14:58:28.609Z,25.00
2018-04-08T15:00:56.883Z,25.00
2018-04-08T15:03:25.121Z,25.00
2018-04-08T15:05:54.152Z,24.80
2018-04-08T15:08:22.390Z,24.80
2018-04-08T15:10:50.721Z,24.80
2018-04-08T15:13:18.965Z,24.80
2018-04-08T15:15:47.996Z,24.70
2018-04-08T15:18:16.234Z,24.70
2018-04-08T15:20:45.275Z,24.70
2018-04-08T15:23:13.518Z,24.70
2018-04-08T15:25:42.585Z,24.60
2018-04-08T15:28:10.830Z,24.60
2018-04-08T15:30:39.105Z,24.70
2018-04-08T15:33:07.381Z,24.50
2018-04-08T15:35:35.643Z,24.50
2018-04-08T15:38:04.654Z,24.50
2018-04-08T15:40:32.938Z,24.50
2018-04-08T15:43:01.186Z,24.60
2018-04-08T15:45:30.242Z,24.70
2018-04-08T15:47:58.513Z,24.60
2018-04-08T15:50:27.140Z,24.60
2018-04-08T15:52:55.378Z,24.60
2018-04-08T15:55:23.658Z,24.50
2018-04-08T15:57:51.914Z,24.50
2018-04-08T16:00:20.943Z,24.40
2018-04-08T16:02:49.945Z,24.40
2018-04-08T16:05:18.202Z,24.40
2018-04-08T16:07:46.447Z,24.40
2018-04-08T16:10:15.482Z,24.40
2018-04-08T16:12:43.738Z,24.30
2018-04-08T16:15:12.765Z,24.20
2018-04-08T16:17:41.022Z,24.20
2018-04-08T16:20:10.047Z,24.30
2018-04-08T16:22:38.273Z,24.30
2018-04-08T16:25:06.637Z,24.30
2018-04-08T16:27:34.892Z,24.20
2018-04-08T16:30:07.481Z,24.20
2018-04-08T16:32:37.193Z,24.20
2018-04-08T16:35:05.482Z,24.20
2018-04-08T16:37:33.982Z,24.10
2018-04-08T16:40:02.739Z,24.10
2018-04-08T16:42:30.997Z,24.10
2018-04-08T16:44:59.274Z,24.10
2018-04-08T16:47:27.550Z,24.10
2018-04-08T16:49:56.676Z,24.00
2018-04-08T16:52:24.915Z,23.90
2018-04-08T16:54:53.960Z,23.90
2018-04-08T16:57:22.195Z,23.90
2018-04-08T16:59:51.223Z,23.70
2018-04-08T17:02:19.460Z,23.70
2018-04-08T17:04:48.515Z,23.70
2018-04-08T17:07:16.746Z,23.70
2018-04-08T17:09:45.764Z,23.50
2018-04-08T17:12:14.069Z,23.60
2018-04-08T17:14:42.326Z,23.40
2018-04-08T17:17:10.590Z,23.40
2018-04-08T17:19:39.605Z,23.20
2018-04-08T17:22:07.903Z,23.20
2018-04-08T17:24:36.158Z,23.10
2018-04-08T17:27:04.397Z,23.10
2018-04-08T17:29:32.747Z,23.00
2018-04-08T17:32:01.031Z,23.00
2018-04-08T17:34:29.305Z,22.90
2018-04-08T17:36:58.315Z,22.80
2018-04-08T17:39:26.580Z,22.70
2018-04-08T17:41:54.848Z,22.70
2018-04-08T17:44:23.855Z,22.60
2018-04-08T17:46:52.128Z,22.50
2018-04-08T17:49:20.365Z,22.50
2018-04-08T17:51:49.410Z,22.30
2018-04-08T17:54:17.695Z,22.20
2018-04-08T17:56:46.463Z,22.20
2018-04-08T17:59:14.706Z,22.10
2018-04-08T18:01:43.064Z,22.00
2018-04-08T18:04:11.293Z,22.00
2018-04-08T18:06:40.302Z,21.90
2018-04-08T18:09:08.551Z,21.90
2018-04-08T18:11:37.593Z,21.80
2018-04-08T18:14:05.834Z,21.80
2018-04-08T18:16:34.859Z,21.60
2018-04-08T18:19:03.115Z,21.70
2018-04-08T18:21:32.156Z,21.60
2018-04-08T18:24:00.452Z,21.60
2018-04-08T18:26:28.724Z,21.50
2018-04-08T18:28:56.972Z,21.50
2018-04-08T18:31:25.240Z,21.50
2018-04-08T18:33:54.266Z,21.40
2018-04-08T18:36:22.556Z,21.40
2018-04-08T18:38:50.796Z,21.30
2018-04-08T18:41:19.836Z,21.20
2018-04-08T18:43:48.107Z,21.10
2018-04-08T18:46:16.397Z,21.10
2018-04-08T18:48:44.643Z,21.00
2018-04-08T18:51:13.674Z,21.00
2018-04-08T18:53:41.928Z,21.00
2018-04-08T18:56:10.232Z,20.90
2018-04-08T18:58:38.469Z,20.80
2018-04-08T19:01:06.754Z,20.80
2018-04-08T19:03:35.759Z,20.70
2018-04-08T19:06:04.767Z,20.60
2018-04-08T19:08:33.038Z,20.60
2018-04-08T19:11:02.412Z,20.50
2018-04-08T19:13:30.713Z,20.50
2018-04-08T19:15:59.802Z,20.40
2018-04-08T19:18:28.082Z,20.40
2018-04-08T19:20:56.418Z,20.40
2018-04-08T19:23:24.669Z,20.40
2018-04-08T19:25:52.920Z,20.30
2018-04-08T19:28:21.176Z,20.30
2018-04-08T19:30:49.430Z,20.20
2018-04-08T19:33:17.709Z,20.20
2018-04-08T19:35:45.946Z,20.10
2018-04-08T19:38:15.043Z,20.10
2018-04-08T19:40:43.305Z,20.10
2018-04-08T19:43:11.532Z,20.10
2018-04-08T19:45:39.799Z,20.00
2018-04-08T19:48:08.815Z,20.00
2018-04-08T19:53:17.985Z,19.90
2018-04-08T19:55:46.239Z,19.90
2018-04-08T19:58:14.559Z,19.80
2018-04-08T20:00:43.361Z,19.80
2018-04-08T20:03:11.588Z,19.80
2018-04-08T20:05:40.730Z,19.60
2018-04-08T20:08:08.994Z,19.60
2018-04-08T20:10:37.251Z,19.60
2018-04-08T20:13:05.503Z,19.60
2018-04-08T20:15:33.746Z,19.50
2018-04-08T20:18:01.991Z,19.40
2018-04-08T20:20:31.014Z,19.40
2018-04-08T20:22:59.310Z,19.30
2018-04-08T20:25:27.566Z,19.30
2018-04-08T20:27:55.817Z,19.30
2018-04-08T20:30:24.846Z,19.10
2018-04-08T20:32:53.140Z,19.10
2018-04-08T20:35:22.123Z,19.10
2018-04-08T20:37:50.398Z,19.00
2018-04-08T20:40:19.446Z,18.90
2018-04-08T20:42:47.663Z,18.90
2018-04-08T20:45:16.704Z,18.80
2018-04-08T20:47:44.941Z,18.80
2018-04-08T20:50:14.069Z,18.80
2018-04-08T20:52:42.310Z,18.70
2018-04-08T20:55:11.347Z,18.60
2018-04-08T20:57:39.654Z,18.60
2018-04-08T21:00:07.887Z,18.60
2018-04-08T21:02:36.187Z,18.60
2018-04-08T21:05:04.474Z,18.60
2018-04-08T21:07:32.751Z,18.50
2018-04-08T21:10:01.008Z,18.40
2018-04-08T21:12:30.094Z,18.30
2018-04-08T21:14:59.136Z,18.30
2018-04-08T21:17:27.409Z,18.30
2018-04-08T21:19:55.665Z,18.20
2018-04-08T21:22:24.719Z,17.90
2018-04-08T21:24:52.966Z,17.90
2018-04-08T21:27:21.238Z,17.90
2018-04-08T21:29:49.480Z,17.90
2018-04-08T21:32:17.813Z,17.90
2018-04-08T21:34:46.053Z,17.80
2018-04-08T21:37:15.126Z,17.70
2018-04-08T21:39:43.371Z,17.60
2018-04-08T21:42:11.641Z,17.60
2018-04-08T21:44:39.887Z,17.50
2018-04-08T21:47:08.913Z,17.40
2018-04-08T21:49:37.176Z,17.30
2018-04-08T21:52:06.213Z,17.30
2018-04-08T21:54:34.485Z,17.20
2018-04-08T21:57:02.791Z,17.20
2018-04-08T21:59:31.081Z,17.10
2018-04-08T22:01:59.354Z,17.10
2018-04-08T22:04:27.630Z,17.10
2018-04-08T22:06:55.911Z,17.00
2018-04-08T22:09:24.281Z,17.00
2018-04-08T22:11:52.551Z,16.90
2018-04-08T22:14:20.816Z,16.80
2018-04-08T22:16:49.074Z,16.80
2018-04-08T22:19:18.088Z,16.70
2018-04-08T22:21:46.357Z,16.70
2018-04-08T22:24:15.420Z,16.60
2018-04-08T22:26:43.686Z,16.60
2018-04-08T22:29:11.931Z,16.50
2018-04-08T22:31:40.187Z,16.50
2018-04-08T22:34:09.231Z,16.50
2018-04-08T22:36:37.513Z,16.50
2018-04-08T22:39:05.762Z,16.50
2018-04-08T22:41:34.913Z,16.40
2018-04-08T22:44:03.172Z,16.40
2018-04-08T22:46:31.454Z,16.30
2018-04-08T22:48:59.717Z,16.30
2018-04-08T22:51:27.982Z,16.20
2018-04-08T22:53:56.997Z,16.10
2018-04-08T22:56:25.254Z,16.10
2018-04-08T22:58:54.267Z,16.00
2018-04-08T23:01:22.534Z,16.00
2018-04-08T23:03:51.538Z,15.80
2018-04-08T23:06:20.567Z,15.80
2018-04-08T23:08:48.820Z,15.70
2018-04-08T23:11:17.843Z,15.60
2018-04-08T23:13:46.122Z,15.60
2018-04-08T23:16:14.383Z,15.50
2018-04-08T23:18:42.633Z,15.60
2018-04-08T23:21:11.676Z,15.50
2018-04-08T23:23:39.908Z,15.50
2018-04-08T23:26:08.951Z,15.40
2018-04-08T23:28:37.254Z,15.40
2018-04-08T23:31:07.049Z,15.30
2018-04-08T23:33:35.294Z,15.30
2018-04-08T23:36:04.373Z,15.40
2018-04-08T23:38:33.429Z,15.40
2018-04-08T23:41:01.677Z,15.40
2018-04-08T23:43:30.682Z,15.40
2018-04-08T23:45:58.991Z,15.40
2018-04-08T23:48:27.234Z,15.40
2018-04-08T23:50:56.261Z,15.40
2018-04-08T23:53:24.569Z,15.30
2018-04-08T23:55:52.823Z,15.30
2018-04-08T23:58:21.155Z,15.30
